Terminal Aerodrome Forecast
Issued by NWS Shreveport, LA

Home | Current Version | Previous Version | Text Only | Print | Product List | Glossary On
Versions: 1 2 3 4 5 6 7 8 9 10 11 12 13 14 15 16 17 18
553
FTUS44 KSHV 242355
TAFSHV
TAF
KSHV 242355Z 2500/2524 20005KT P6SM SCT045 SCT250
     FM250100 17005KT P6SM SCT250
      TEMPO 2510/2512 5SM BR SCT005
     FM251200 19003KT 5SM BR SCT005 SCT250
     FM251400 22004KT P6SM SCT015 BKN250
     FM251600 24003KT P6SM BKN045 BKN100
     FM252000 15005KT P6SM OVC050
      TEMPO 2520/2523 -TSRA BKN050CB=

USA.gov is the U.S. government's official web portal to all federal, state and local government web resources and services.